YYZ weather

Lester B. Pearson International Airport
Toronto, Ontario, Canada

Public forecast

Using degrees Celsius for public forecast. Weather courtesy of forecast.io.

METAR (pilot weather report)

Retrieved 2018/10/17 20:20 UTC (18 minutes ago):

CYYZ 172020Z 31023KT 15SM -SHRA FEW025 BKN038TCU BKN075 05/M01 A3004 RMK SF1TCU7AC1 SF TR AC TR SLP179

TAF (pilot weather forecast)

Retrieved 2018/10/17 21:40 UTC (0 seconds ago):

TAF CYYZ 172038Z 1721/1824 31018G28KT P6SM BKN040 TEMPO 1721/1724 5SM -SHRA BR BKN020 FM180000 30015G25KT P6SM BKN060 FM180200 31015KT P6SM SCT060 BECMG 1803/1805 32007KT FM181500 25008KT P6SM BKN040 BECMG 1816/1818 27015KT BECMG 1822/1824 24012KT RMK NXT FCST BY 180000Z